Time;durP1;ratioP1;P1;durP2;ratioP2;P2;SDS_P1;SDS_P2;PMS_P1;PMS_P2;Temp;Humidity;BMP_temperature;BMP_pressure;BME280_temperature;BME280_humidity;BME280_pressure;Samples;Min_cycle;Max_cycle;Signal;HPM_P1;HPM_P2
2022/12/06 00:01:55;;;;;;;;;;;19.10;45.30;;;;;;5064223;28;19924;-55
2022/12/06 00:04:20;;;;;;;;;;;19.10;45.20;;;;;;5060183;28;19919;-55
2022/12/06 00:06:46;;;;;;;;;;;19.10;45.30;;;;;;5062447;28;19913;-55
2022/12/06 00:09:16;;;;;;;;;;;19.10;45.30;;;;;;5062589;28;20237;-56
2022/12/06 00:11:42;;;;;;;;;;;19.10;45.40;;;;;;5057703;28;19969;-56
2022/12/06 00:14:07;;;;;;;;;;;19.10;45.40;;;;;;5059039;28;19918;-55
2022/12/06 00:16:33;;;;;;;;;;;19.10;45.40;;;;;;5059503;28;19921;-56
2022/12/06 00:18:59;;;;;;;;;;;19.00;45.30;;;;;;5062253;28;20378;-55
2022/12/06 00:21:27;;;;;;;;;;;19.10;45.40;;;;;;5063034;27;19924;-55
2022/12/06 00:24:08;;;;;;;;;;;19.10;45.30;;;;;;5064131;28;19913;-55
2022/12/06 00:26:34;;;;;;;;;;;19.10;45.20;;;;;;5055118;27;20321;-55
2022/12/06 00:29:00;;;;;;;;;;;19.10;45.20;;;;;;5061953;27;19916;-56
2022/12/06 00:31:26;;;;;;;;;;;19.10;45.20;;;;;;5060961;28;19928;-55
2022/12/06 00:33:51;;;;;;;;;;;19.10;45.20;;;;;;5065330;28;20279;-56
2022/12/06 00:36:23;;;;;;;;;;;19.10;45.20;;;;;;5060458;27;19948;-55
2022/12/06 00:38:49;;;;;;;;;;;19.10;45.30;;;;;;5078128;27;20060;-55
2022/12/06 00:41:15;;;;;;;;;;;19.00;45.30;;;;;;5060714;28;19952;-56
2022/12/06 00:43:41;;;;;;;;;;;19.00;45.30;;;;;;5063314;27;19981;-55
2022/12/06 00:46:07;;;;;;;;;;;19.00;45.30;;;;;;5064675;28;19912;-55
2022/12/06 00:48:32;;;;;;;;;;;19.00;45.30;;;;;;5062497;28;19920;-56
2022/12/06 00:50:57;;;;;;;;;;;19.00;45.30;;;;;;5061972;28;19912;-55
2022/12/06 00:53:23;;;;;;;;;;;19.00;45.30;;;;;;5064079;28;19916;-55
2022/12/06 00:55:48;;;;;;;;;;;19.00;45.30;;;;;;5067194;28;19964;-55
2022/12/06 00:58:14;;;;;;;;;;;19.00;45.30;;;;;;5074286;27;20328;-56
2022/12/06 01:00:40;;;;;;;;;;;19.00;45.30;;;;;;5066290;28;19913;-54
2022/12/06 01:03:05;;;;;;;;;;;19.00;45.30;;;;;;5066883;28;19923;-55
2022/12/06 01:05:30;;;;;;;;;;;19.00;45.20;;;;;;5057838;27;19920;-54
2022/12/06 01:07:56;;;;;;;;;;;19.00;45.20;;;;;;5063800;28;19913;-55
2022/12/06 01:10:21;;;;;;;;;;;19.00;45.80;;;;;;5050411;27;19913;-54
2022/12/06 01:12:47;;;;;;;;;;;19.00;45.10;;;;;;5067355;27;19966;-54
2022/12/06 01:15:12;;;;;;;;;;;19.00;45.20;;;;;;5063698;27;19923;-56
2022/12/06 01:17:38;;;;;;;;;;;19.00;45.20;;;;;;5068192;27;20012;-56
2022/12/06 01:20:03;;;;;;;;;;;19.00;45.30;;;;;;5063826;28;19931;-56
2022/12/06 01:22:29;;;;;;;;;;;19.00;45.30;;;;;;5067086;28;19948;-55
2022/12/06 01:24:54;;;;;;;;;;;18.90;45.30;;;;;;5066595;28;20298;-55
2022/12/06 01:27:20;;;;;;;;;;;18.90;45.40;;;;;;5069219;27;19932;-54
2022/12/06 01:29:45;;;;;;;;;;;18.90;45.30;;;;;;5059188;27;19923;-55
2022/12/06 01:32:11;;;;;;;;;;;18.90;45.40;;;;;;5059963;27;19999;-54
2022/12/06 01:34:36;;;;;;;;;;;18.90;45.40;;;;;;5062473;27;19937;-55
2022/12/06 01:37:01;;;;;;;;;;;18.90;45.30;;;;;;5060634;28;19917;-55
2022/12/06 01:39:27;;;;;;;;;;;18.80;45.30;;;;;;5063086;28;19957;-54
2022/12/06 01:41:52;;;;;;;;;;;18.90;45.50;;;;;;5066716;28;19919;-54
2022/12/06 01:44:37;;;;;;;;;;;18.80;45.40;;;;;;5057446;28;19927;-54
2022/12/06 01:47:02;;;;;;;;;;;18.80;45.40;;;;;;5063279;28;19976;-54
2022/12/06 01:49:30;;;;;;;;;;;18.80;45.50;;;;;;5059425;27;19989;-55
2022/12/06 01:51:57;;;;;;;;;;;18.80;45.40;;;;;;5066010;27;19916;-54
2022/12/06 01:54:22;;;;;;;;;;;18.70;45.40;;;;;;5071564;27;19916;-54
2022/12/06 01:56:48;;;;;;;;;;;18.70;45.40;;;;;;5048649;28;20005;-55
2022/12/06 01:59:13;;;;;;;;;;;18.70;45.60;;;;;;5064121;28;19920;-55
2022/12/06 02:01:39;;;;;;;;;;;18.70;45.70;;;;;;5063342;28;19924;-55
2022/12/06 02:04:04;;;;;;;;;;;18.70;45.60;;;;;;5060033;28;19913;-56
2022/12/06 02:06:30;;;;;;;;;;;18.70;45.50;;;;;;5049720;27;19924;-54
2022/12/06 02:08:55;;;;;;;;;;;18.70;45.50;;;;;;5044756;28;20004;-56
2022/12/06 02:11:21;;;;;;;;;;;18.70;45.50;;;;;;5045694;27;20015;-55
2022/12/06 02:13:46;;;;;;;;;;;18.70;45.80;;;;;;5060854;27;19940;-54
2022/12/06 02:16:12;;;;;;;;;;;18.70;45.80;;;;;;5060397;28;20350;-55
2022/12/06 02:18:37;;;;;;;;;;;18.70;45.60;;;;;;5058388;28;19913;-55
2022/12/06 02:21:03;;;;;;;;;;;18.70;45.80;;;;;;5061570;28;19931;-55
2022/12/06 02:23:28;;;;;;;;;;;18.70;45.50;;;;;;5061789;28;19920;-56
2022/12/06 02:25:57;;;;;;;;;;;18.70;45.50;;;;;;5061759;27;19916;-54
2022/12/06 02:28:22;;;;;;;;;;;18.70;45.50;;;;;;5060230;27;20003;-55
2022/12/06 02:30:53;;;;;;;;;;;18.80;45.40;;;;;;5058972;28;19955;-55
2022/12/06 02:33:24;;;;;;;;;;;18.80;45.20;;;;;;5055254;27;19917;-55
2022/12/06 02:35:54;;;;;;;;;;;18.90;45.10;;;;;;5058424;28;20290;-56
2022/12/06 02:38:22;;;;;;;;;;;19.00;45.00;;;;;;5070152;27;20106;-55
2022/12/06 02:40:49;;;;;;;;;;;19.00;44.90;;;;;;5059764;28;19912;-54
2022/12/06 02:43:16;;;;;;;;;;;19.10;44.80;;;;;;5061434;28;19913;-56
2022/12/06 02:45:46;;;;;;;;;;;19.10;44.60;;;;;;5062087;28;19920;-55
2022/12/06 02:48:11;;;;;;;;;;;19.20;44.60;;;;;;5046231;28;19913;-56
2022/12/06 02:50:41;;;;;;;;;;;19.30;44.50;;;;;;5058698;28;19923;-54
2022/12/06 02:53:07;;;;;;;;;;;19.30;44.60;;;;;;5046416;27;19923;-55
2022/12/06 02:55:33;;;;;;;;;;;19.30;44.20;;;;;;5054018;27;20648;-54
2022/12/06 02:57:58;;;;;;;;;;;19.40;44.10;;;;;;5045871;28;19921;-55
2022/12/06 03:00:34;;;;;;;;;;;19.40;44.00;;;;;;5061243;28;19913;-55
2022/12/06 03:03:03;;;;;;;;;;;19.40;44.10;;;;;;5055364;28;19913;-55
2022/12/06 03:05:31;;;;;;;;;;;19.40;44.10;;;;;;5061176;28;19924;-55
2022/12/06 03:07:57;;;;;;;;;;;19.30;44.20;;;;;;5056664;28;19966;-55
2022/12/06 03:10:29;;;;;;;;;;;19.30;44.20;;;;;;5046611;27;19913;-55
2022/12/06 03:12:55;;;;;;;;;;;19.30;44.20;;;;;;5056524;27;19912;-55
2022/12/06 03:15:20;;;;;;;;;;;19.30;44.20;;;;;;5056464;27;19931;-55
2022/12/06 03:17:47;;;;;;;;;;;19.40;44.10;;;;;;5060025;28;19920;-55
2022/12/06 03:20:25;;;;;;;;;;;19.40;44.10;;;;;;5060205;27;19915;-55
2022/12/06 03:22:51;;;;;;;;;;;19.40;44.00;;;;;;5069636;27;20318;-54
2022/12/06 03:25:17;;;;;;;;;;;19.40;43.90;;;;;;5053400;28;19966;-56
2022/12/06 03:27:42;;;;;;;;;;;19.40;43.90;;;;;;5061284;28;19913;-56
2022/12/06 03:30:09;;;;;;;;;;;19.40;43.90;;;;;;5051939;28;19977;-54
2022/12/06 03:32:34;;;;;;;;;;;19.40;43.90;;;;;;5029371;28;19916;-55
2022/12/06 03:35:01;;;;;;;;;;;19.40;43.90;;;;;;5051892;28;19938;-55
2022/12/06 03:37:27;;;;;;;;;;;19.40;43.90;;;;;;5053960;27;19917;-55
2022/12/06 03:39:57;;;;;;;;;;;19.40;43.90;;;;;;5058973;28;20329;-55
2022/12/06 03:42:22;;;;;;;;;;;19.40;44.00;;;;;;5041151;28;19913;-55
2022/12/06 03:44:48;;;;;;;;;;;19.40;44.00;;;;;;5059984;28;19919;-55
2022/12/06 03:47:14;;;;;;;;;;;19.30;43.90;;;;;;5063143;28;19917;-55
2022/12/06 03:49:41;;;;;;;;;;;19.40;44.00;;;;;;5063570;28;19916;-54
2022/12/06 03:52:07;;;;;;;;;;;19.40;43.90;;;;;;5046255;28;20277;-56
2022/12/06 03:54:32;;;;;;;;;;;19.40;43.90;;;;;;5049158;28;19927;-54
2022/12/06 03:56:58;;;;;;;;;;;19.30;43.90;;;;;;5060275;28;19969;-55
2022/12/06 03:59:23;;;;;;;;;;;19.30;43.80;;;;;;5048201;28;19916;-55
2022/12/06 04:01:48;;;;;;;;;;;19.30;43.90;;;;;;5063641;28;19917;-56
2022/12/06 04:04:14;;;;;;;;;;;19.30;43.90;;;;;;5060944;28;19912;-56
2022/12/06 04:06:39;;;;;;;;;;;19.30;43.90;;;;;;5056155;28;19925;-54
2022/12/06 04:11:50;;;;;;;;;;;19.30;43.90;;;;;;5028791;28;19920;-55
2022/12/06 04:14:16;;;;;;;;;;;19.40;43.90;;;;;;5054210;28;19921;-55
2022/12/06 04:19:25;;;;;;;;;;;19.30;43.90;;;;;;5054444;28;19940;-55
2022/12/06 04:24:35;;;;;;;;;;;19.30;43.90;;;;;;5058517;27;20450;-56
2022/12/06 04:40:41;;;;;;;;;;;19.30;44.10;;;;;;5062589;28;19971;-56
2022/12/06 04:45:54;;;;;;;;;;;19.30;44.10;;;;;;5062274;27;19961;-55
2022/12/06 04:48:19;;;;;;;;;;;19.30;44.10;;;;;;5064874;28;19916;-55
2022/12/06 04:50:48;;;;;;;;;;;19.30;44.20;;;;;;5064456;28;19916;-54
2022/12/06 04:53:14;;;;;;;;;;;19.30;44.20;;;;;;5067415;28;19996;-56
2022/12/06 04:55:39;;;;;;;;;;;19.30;44.30;;;;;;5065982;28;20020;-55
2022/12/06 04:58:05;;;;;;;;;;;19.30;44.20;;;;;;5060230;28;20432;-54
2022/12/06 05:00:30;;;;;;;;;;;19.30;44.30;;;;;;5064016;28;19913;-55
2022/12/06 05:02:56;;;;;;;;;;;19.30;44.20;;;;;;5067694;27;20317;-55
2022/12/06 05:05:21;;;;;;;;;;;19.30;44.20;;;;;;5061841;28;19931;-56
2022/12/06 05:07:47;;;;;;;;;;;19.30;44.20;;;;;;5060170;28;19960;-55
2022/12/06 05:10:12;;;;;;;;;;;19.30;44.20;;;;;;5061156;28;19917;-55
2022/12/06 05:12:37;;;;;;;;;;;19.30;44.20;;;;;;5063484;28;19951;-55
2022/12/06 05:15:03;;;;;;;;;;;19.30;44.20;;;;;;5060221;28;19916;-55
2022/12/06 05:17:28;;;;;;;;;;;19.30;44.20;;;;;;5060313;27;19924;-54
2022/12/06 05:19:54;;;;;;;;;;;19.30;44.10;;;;;;5058051;28;19920;-55
2022/12/06 05:22:19;;;;;;;;;;;19.30;44.20;;;;;;5062043;27;19921;-55
2022/12/06 05:24:45;;;;;;;;;;;19.30;44.20;;;;;;5058947;28;19913;-55
2022/12/06 05:27:10;;;;;;;;;;;19.30;44.20;;;;;;5065485;27;19913;-55
2022/12/06 05:29:35;;;;;;;;;;;19.30;44.20;;;;;;5062639;28;19917;-55
2022/12/06 05:32:01;;;;;;;;;;;19.30;44.20;;;;;;5056378;28;20004;-55
2022/12/06 05:34:26;;;;;;;;;;;19.30;44.20;;;;;;5059628;28;20308;-55
2022/12/06 05:36:52;;;;;;;;;;;19.30;44.30;;;;;;5071779;27;19923;-55
2022/12/06 05:39:17;;;;;;;;;;;19.30;44.40;;;;;;5063968;28;20377;-56
2022/12/06 05:41:43;;;;;;;;;;;19.30;44.40;;;;;;5062506;28;20442;-55
2022/12/06 05:44:09;;;;;;;;;;;19.30;44.40;;;;;;5062926;28;20318;-55
2022/12/06 05:46:35;;;;;;;;;;;19.30;44.30;;;;;;5065007;28;19916;-55
2022/12/06 05:49:00;;;;;;;;;;;19.30;44.40;;;;;;5065387;28;19965;-55
2022/12/06 05:51:25;;;;;;;;;;;19.30;44.40;;;;;;5062928;28;19920;-54
2022/12/06 05:53:51;;;;;;;;;;;19.30;44.40;;;;;;5065423;28;19913;-55
2022/12/06 05:56:16;;;;;;;;;;;19.20;44.30;;;;;;5062164;28;19921;-55
2022/12/06 05:58:42;;;;;;;;;;;19.30;44.30;;;;;;5070544;27;19912;-55
2022/12/06 06:01:07;;;;;;;;;;;19.30;44.30;;;;;;5060859;28;19916;-54
2022/12/06 06:03:33;;;;;;;;;;;19.30;44.20;;;;;;5057205;28;19917;-55
2022/12/06 06:05:59;;;;;;;;;;;19.30;44.20;;;;;;5060964;28;19916;-55
2022/12/06 06:08:24;;;;;;;;;;;19.30;44.30;;;;;;5063343;27;19916;-54
2022/12/06 06:10:50;;;;;;;;;;;19.30;44.30;;;;;;5058212;28;19936;-55
2022/12/06 06:13:15;;;;;;;;;;;19.30;44.30;;;;;;5059947;28;19921;-56
2022/12/06 06:15:41;;;;;;;;;;;19.30;44.30;;;;;;5062724;27;19921;-54
2022/12/06 06:18:06;;;;;;;;;;;19.30;44.30;;;;;;5046479;27;19916;-55
2022/12/06 06:20:32;;;;;;;;;;;19.20;44.30;;;;;;5056690;28;20023;-55
2022/12/06 06:22:57;;;;;;;;;;;19.20;44.40;;;;;;5069917;27;19927;-55
2022/12/06 06:25:23;;;;;;;;;;;19.20;44.30;;;;;;5066090;28;20435;-55
2022/12/06 06:27:48;;;;;;;;;;;19.20;44.40;;;;;;5060152;28;19917;-56
2022/12/06 06:30:14;;;;;;;;;;;19.20;44.50;;;;;;5061448;27;19921;-54
2022/12/06 06:32:39;;;;;;;;;;;19.20;44.80;;;;;;5066853;27;19913;-55
2022/12/06 06:35:05;;;;;;;;;;;19.20;44.40;;;;;;5061832;28;20258;-55
2022/12/06 06:37:31;;;;;;;;;;;19.20;44.40;;;;;;5067949;27;19955;-55
2022/12/06 06:39:57;;;;;;;;;;;19.20;44.40;;;;;;5056750;28;19912;-55
2022/12/06 06:42:22;;;;;;;;;;;19.20;44.40;;;;;;5056865;28;20283;-55
2022/12/06 06:44:48;;;;;;;;;;;19.20;44.40;;;;;;5060020;27;19961;-54
2022/12/06 06:47:13;;;;;;;;;;;19.20;44.40;;;;;;5064968;27;19924;-55
2022/12/06 06:49:40;;;;;;;;;;;19.20;44.40;;;;;;5064279;28;19916;-56
2022/12/06 06:52:05;;;;;;;;;;;19.30;44.50;;;;;;5063890;28;19920;-54
2022/12/06 06:54:31;;;;;;;;;;;19.20;44.40;;;;;;5058885;28;19917;-55
2022/12/06 06:56:56;;;;;;;;;;;19.30;44.50;;;;;;5064648;27;19924;-55
2022/12/06 06:59:24;;;;;;;;;;;19.20;44.40;;;;;;5059519;28;19916;-55
2022/12/06 07:01:50;;;;;;;;;;;19.20;44.50;;;;;;5057682;28;20008;-55
2022/12/06 07:04:16;;;;;;;;;;;19.20;45.10;;;;;;5061205;27;19951;-55
2022/12/06 07:06:41;;;;;;;;;;;19.20;44.40;;;;;;5063221;28;19912;-55
2022/12/06 07:09:06;;;;;;;;;;;19.20;44.50;;;;;;5073597;27;19913;-55
2022/12/06 07:11:32;;;;;;;;;;;19.20;44.50;;;;;;5061320;27;19912;-54
2022/12/06 07:13:57;;;;;;;;;;;19.20;44.50;;;;;;5058692;27;19984;-56
2022/12/06 07:16:23;;;;;;;;;;;19.20;44.50;;;;;;5064963;27;19924;-54
2022/12/06 07:18:48;;;;;;;;;;;19.20;44.50;;;;;;5062181;27;19924;-55
2022/12/06 07:21:14;;;;;;;;;;;19.20;44.50;;;;;;5059700;28;19935;-55
2022/12/06 07:23:39;;;;;;;;;;;19.20;44.50;;;;;;5052303;28;19919;-55
2022/12/06 07:26:06;;;;;;;;;;;19.20;44.50;;;;;;5064892;27;19913;-55
2022/12/06 07:28:33;;;;;;;;;;;19.20;44.60;;;;;;5065598;27;20732;-55
2022/12/06 07:31:05;;;;;;;;;;;19.20;44.60;;;;;;5059887;27;19917;-56
2022/12/06 07:33:31;;;;;;;;;;;19.20;44.60;;;;;;5059388;28;19913;-55
2022/12/06 07:35:56;;;;;;;;;;;19.20;44.70;;;;;;5057994;27;19961;-55
2022/12/06 07:38:22;;;;;;;;;;;19.20;44.60;;;;;;5062983;28;19969;-55
2022/12/06 07:40:47;;;;;;;;;;;19.20;44.60;;;;;;5059370;28;19919;-54
2022/12/06 07:45:57;;;;;;;;;;;19.20;44.60;;;;;;5071461;27;19924;-55
2022/12/06 07:48:22;;;;;;;;;;;19.20;44.60;;;;;;5059845;28;19916;-56
2022/12/06 07:50:48;;;;;;;;;;;19.20;44.80;;;;;;5056099;27;19917;-56
2022/12/06 07:53:13;;;;;;;;;;;19.20;45.40;;;;;;5059494;27;19987;-54
2022/12/06 07:55:38;;;;;;;;;;;19.20;44.80;;;;;;5050018;27;19916;-56
2022/12/06 07:58:04;;;;;;;;;;;19.10;44.90;;;;;;5070511;27;19920;-56
2022/12/06 08:00:29;;;;;;;;;;;19.20;45.10;;;;;;5079846;27;19980;-54
2022/12/06 08:02:55;;;;;;;;;;;19.30;45.10;;;;;;5061396;28;19913;-55
2022/12/06 08:05:20;;;;;;;;;;;19.50;44.90;;;;;;5062501;28;19920;-55
2022/12/06 08:07:46;;;;;;;;;;;19.80;44.60;;;;;;5067403;28;19934;-55
2022/12/06 08:10:11;;;;;;;;;;;20.10;44.30;;;;;;5063419;28;20471;-56
2022/12/06 08:12:37;;;;;;;;;;;20.30;43.80;;;;;;5058370;28;19920;-56
2022/12/06 08:15:02;;;;;;;;;;;20.50;43.40;;;;;;5070484;27;19912;-54
2022/12/06 08:17:28;;;;;;;;;;;20.60;43.20;;;;;;5065358;27;19916;-56
2022/12/06 08:19:53;;;;;;;;;;;20.70;43.10;;;;;;5062104;28;19931;-55
2022/12/06 08:22:19;;;;;;;;;;;20.80;43.10;;;;;;5065957;27;19952;-54
2022/12/06 08:24:44;;;;;;;;;;;20.90;43.00;;;;;;5083352;27;20017;-54
2022/12/06 08:27:10;;;;;;;;;;;20.90;42.80;;;;;;5064050;28;19919;-55
2022/12/06 08:29:35;;;;;;;;;;;21.00;42.80;;;;;;5071432;27;19915;-56
2022/12/06 08:32:01;;;;;;;;;;;21.00;42.80;;;;;;5063506;28;19927;-55
2022/12/06 08:34:26;;;;;;;;;;;21.00;42.70;;;;;;5062561;28;19930;-56
2022/12/06 08:36:52;;;;;;;;;;;21.10;42.70;;;;;;5071786;27;19960;-55
2022/12/06 08:39:17;;;;;;;;;;;21.10;42.60;;;;;;5067424;27;19919;-56
2022/12/06 08:41:56;;;;;;;;;;;21.10;42.60;;;;;;5062911;28;19919;-55
2022/12/06 08:44:22;;;;;;;;;;;21.30;42.60;;;;;;5064270;27;19917;-56
2022/12/06 08:46:47;;;;;;;;;;;21.30;42.40;;;;;;5061719;27;20352;-55
2022/12/06 08:49:13;;;;;;;;;;;21.30;42.40;;;;;;5064522;27;20028;-55
2022/12/06 08:51:39;;;;;;;;;;;21.30;42.30;;;;;;5061183;28;19916;-55
2022/12/06 08:54:05;;;;;;;;;;;21.30;42.40;;;;;;5045203;28;19908;-56
2022/12/06 08:56:30;;;;;;;;;;;21.30;42.50;;;;;;5128699;27;19916;-55
2022/12/06 08:58:56;;;;;;;;;;;21.30;42.50;;;;;;5048056;28;20354;-55
2022/12/06 09:01:22;;;;;;;;;;;21.30;42.60;;;;;;5069073;27;19915;-55
2022/12/06 09:03:47;;;;;;;;;;;21.30;42.60;;;;;;5076762;28;19913;-56
2022/12/06 09:06:13;;;;;;;;;;;21.30;42.60;;;;;;5096530;27;19914;-55
2022/12/06 09:08:39;;;;;;;;;;;21.40;42.60;;;;;;5064890;27;19921;-55
2022/12/06 09:11:05;;;;;;;;;;;21.50;42.60;;;;;;5081785;27;19917;-56
2022/12/06 09:13:30;;;;;;;;;;;21.50;42.60;;;;;;5063428;28;20387;-56
2022/12/06 09:15:56;;;;;;;;;;;21.50;42.40;;;;;;5069686;28;19925;-55
2022/12/06 09:18:21;;;;;;;;;;;21.50;42.50;;;;;;5070195;28;19908;-56
2022/12/06 09:20:46;;;;;;;;;;;21.50;42.50;;;;;;5066416;28;19924;-54
2022/12/06 09:23:12;;;;;;;;;;;21.60;42.50;;;;;;5070764;27;19918;-57
2022/12/06 09:25:39;;;;;;;;;;;21.60;42.50;;;;;;5066572;27;19913;-55
2022/12/06 09:28:05;;;;;;;;;;;21.60;42.40;;;;;;5105307;27;19926;-56
2022/12/06 09:30:30;;;;;;;;;;;21.60;42.30;;;;;;5111230;27;19911;-55
2022/12/06 09:32:56;;;;;;;;;;;21.70;42.40;;;;;;5138998;27;19971;-57
2022/12/06 09:35:21;;;;;;;;;;;21.70;42.40;;;;;;5059889;28;20487;-56
2022/12/06 09:37:46;;;;;;;;;;;21.70;42.40;;;;;;5069707;28;20402;-55
2022/12/06 09:40:30;;;;;;;;;;;21.70;42.40;;;;;;5068765;27;20292;-56
2022/12/06 09:43:01;;;;;;;;;;;21.70;42.40;;;;;;5070831;27;19918;-55
2022/12/06 09:45:48;;;;;;;;;;;21.70;42.30;;;;;;5064317;28;19913;-56
2022/12/06 09:48:14;;;;;;;;;;;21.80;42.40;;;;;;5050039;28;20009;-56
2022/12/06 09:50:48;;;;;;;;;;;21.80;42.40;;;;;;5090491;27;20433;-54
2022/12/06 09:53:14;;;;;;;;;;;21.80;42.40;;;;;;5062588;28;20360;-56
2022/12/06 09:55:42;;;;;;;;;;;21.80;42.50;;;;;;5062954;28;19944;-57
2022/12/06 09:58:12;;;;;;;;;;;21.80;42.40;;;;;;5035060;28;20430;-56
2022/12/06 10:00:39;;;;;;;;;;;21.80;42.40;;;;;;5080427;27;19921;-56
2022/12/06 10:03:11;;;;;;;;;;;21.80;42.50;;;;;;5044026;28;20447;-55
2022/12/06 10:05:40;;;;;;;;;;;21.80;42.50;;;;;;5063067;27;20374;-56
2022/12/06 10:08:12;;;;;;;;;;;21.90;42.60;;;;;;5047113;27;19908;-57
2022/12/06 10:11:01;;;;;;;;;;;21.90;42.50;;;;;;5078259;27;19915;-58
2022/12/06 10:13:32;;;;;;;;;;;21.90;42.50;;;;;;5051757;28;20245;-56
2022/12/06 10:15:57;;;;;;;;;;;22.00;42.50;;;;;;5095267;27;19924;-58
2022/12/06 10:18:42;;;;;;;;;;;21.90;42.40;;;;;;5065886;27;19919;-55
2022/12/06 10:21:21;;;;;;;;;;;21.90;42.40;;;;;;5134000;27;19929;-55
2022/12/06 10:23:47;;;;;;;;;;;21.90;42.40;;;;;;5039010;28;19916;-56
2022/12/06 10:26:14;;;;;;;;;;;22.00;42.50;;;;;;5074919;27;19920;-56
2022/12/06 10:29:00;;;;;;;;;;;22.00;42.50;;;;;;5060809;27;21363;-56
2022/12/06 10:31:25;;;;;;;;;;;22.00;42.50;;;;;;5055661;28;20696;-55
2022/12/06 10:33:52;;;;;;;;;;;22.00;42.60;;;;;;5068983;27;19951;-56
2022/12/06 10:36:37;;;;;;;;;;;22.00;42.60;;;;;;5076440;27;19920;-56
2022/12/06 10:39:17;;;;;;;;;;;22.00;42.50;;;;;;5053520;28;19931;-55
2022/12/06 10:41:45;;;;;;;;;;;22.00;42.60;;;;;;5049836;27;19912;-56
2022/12/06 10:44:23;;;;;;;;;;;22.00;42.60;;;;;;5053560;28;19909;-56
2022/12/06 10:47:03;;;;;;;;;;;22.00;42.50;;;;;;5070459;27;20008;-55
2022/12/06 10:49:35;;;;;;;;;;;22.10;42.50;;;;;;5061994;27;19916;-55
2022/12/06 10:52:06;;;;;;;;;;;22.10;42.50;;;;;;5067526;28;20332;-55
2022/12/06 10:54:33;;;;;;;;;;;22.10;42.60;;;;;;5041362;28;19940;-56
2022/12/06 10:56:59;;;;;;;;;;;22.10;42.60;;;;;;5051617;28;19919;-56
2022/12/06 10:59:34;;;;;;;;;;;22.10;42.60;;;;;;5073760;27;19966;-54
2022/12/06 11:02:00;;;;;;;;;;;22.10;42.50;;;;;;5091934;27;19944;-56
2022/12/06 11:04:32;;;;;;;;;;;22.10;42.50;;;;;;5040450;28;19917;-56
2022/12/06 11:07:00;;;;;;;;;;;22.20;42.60;;;;;;5038757;28;19912;-56
2022/12/06 11:09:42;;;;;;;;;;;22.10;42.50;;;;;;5064272;28;19989;-55
2022/12/06 11:12:19;;;;;;;;;;;22.10;42.50;;;;;;5042311;28;19960;-56
2022/12/06 11:14:45;;;;;;;;;;;22.20;43.10;;;;;;5085277;27;19911;-56
2022/12/06 11:17:13;;;;;;;;;;;22.20;42.40;;;;;;5090912;27;20015;-55
2022/12/06 11:19:39;;;;;;;;;;;22.20;42.40;;;;;;5071324;27;19912;-56
2022/12/06 11:22:11;;;;;;;;;;;22.20;42.30;;;;;;5084236;27;19929;-55
2022/12/06 11:24:48;;;;;;;;;;;22.20;42.20;;;;;;5046948;27;19917;-56
2022/12/06 11:27:43;;;;;;;;;;;22.20;42.30;;;;;;5041506;28;19917;-56
2022/12/06 11:30:13;;;;;;;;;;;22.30;42.30;;;;;;5099029;27;20604;-56
2022/12/06 11:32:38;;;;;;;;;;;22.30;42.30;;;;;;5070756;27;19912;-55
2022/12/06 11:35:04;;;;;;;;;;;22.30;42.30;;;;;;5042786;28;19924;-55
2022/12/06 11:37:30;;;;;;;;;;;22.30;42.30;;;;;;5076079;27;19928;-55
2022/12/06 11:40:05;;;;;;;;;;;22.30;42.20;;;;;;5078076;27;19911;-54
2022/12/06 11:42:30;;;;;;;;;;;22.30;42.40;;;;;;5102353;27;19948;-54
2022/12/06 11:45:06;;;;;;;;;;;22.30;42.20;;;;;;5066422;27;19996;-57
2022/12/06 11:47:31;;;;;;;;;;;22.30;42.30;;;;;;5048259;28;20405;-55
2022/12/06 11:49:57;;;;;;;;;;;22.30;42.10;;;;;;5118100;27;19957;-54
2022/12/06 11:52:36;;;;;;;;;;;22.30;42.20;;;;;;5069968;27;19924;-54
2022/12/06 11:55:02;;;;;;;;;;;22.40;42.40;;;;;;5049740;28;19917;-56
2022/12/06 11:57:36;;;;;;;;;;;22.40;42.40;;;;;;5049930;27;19932;-55
2022/12/06 12:00:10;;;;;;;;;;;22.30;42.30;;;;;;5087568;27;19913;-55
2022/12/06 12:02:36;;;;;;;;;;;22.40;42.50;;;;;;5129505;27;20369;-55
2022/12/06 12:05:20;;;;;;;;;;;22.40;42.40;;;;;;5057552;27;19990;-56
2022/12/06 12:07:56;;;;;;;;;;;22.40;42.40;;;;;;5115873;27;20010;-54
2022/12/06 12:10:22;;;;;;;;;;;22.40;42.30;;;;;;5073564;27;19927;-54
2022/12/06 12:15:32;;;;;;;;;;;22.40;42.40;;;;;;5056858;28;19923;-55
2022/12/06 12:17:58;;;;;;;;;;;22.40;42.40;;;;;;5086386;27;20434;-55
2022/12/06 12:20:27;;;;;;;;;;;22.40;42.30;;;;;;5098971;27;19973;-55
2022/12/06 12:22:59;;;;;;;;;;;22.40;42.30;;;;;;5049330;27;20006;-54
2022/12/06 12:25:28;;;;;;;;;;;22.40;42.50;;;;;;5078361;27;19915;-55
2022/12/06 12:27:57;;;;;;;;;;;22.40;42.30;;;;;;5099380;27;20364;-56
2022/12/06 12:30:23;;;;;;;;;;;22.40;42.20;;;;;;5067225;27;20008;-56
2022/12/06 12:32:49;;;;;;;;;;;22.40;42.30;;;;;;5067632;27;20350;-55
2022/12/06 12:35:21;;;;;;;;;;;22.50;42.20;;;;;;5082093;27;19940;-57
2022/12/06 12:37:54;;;;;;;;;;;22.50;42.40;;;;;;5064346;27;19917;-54
2022/12/06 12:40:20;;;;;;;;;;;22.50;42.20;;;;;;5085327;27;20249;-56
2022/12/06 12:42:46;;;;;;;;;;;22.50;42.20;;;;;;5080604;27;19913;-55
2022/12/06 12:45:16;;;;;;;;;;;22.50;42.30;;;;;;5061366;27;20029;-56
2022/12/06 12:47:53;;;;;;;;;;;22.50;42.20;;;;;;5046164;27;19955;-55
2022/12/06 12:50:21;;;;;;;;;;;22.50;42.20;;;;;;5055158;27;19948;-56
2022/12/06 12:52:46;;;;;;;;;;;22.50;42.20;;;;;;5107244;27;20378;-55
2022/12/06 12:55:12;;;;;;;;;;;22.50;42.00;;;;;;5054241;28;19918;-55
2022/12/06 12:57:37;;;;;;;;;;;22.60;42.20;;;;;;5062876;28;19986;-54
2022/12/06 13:00:03;;;;;;;;;;;22.50;42.00;;;;;;5042215;27;19921;-55
2022/12/06 13:02:29;;;;;;;;;;;22.50;42.00;;;;;;5060791;27;20455;-54
2022/12/06 13:04:59;;;;;;;;;;;22.50;42.10;;;;;;5037759;27;20023;-55
2022/12/06 13:07:34;;;;;;;;;;;22.50;42.20;;;;;;5058426;28;20284;-55
2022/12/06 13:10:06;;;;;;;;;;;22.50;42.10;;;;;;5035685;28;19962;-54
2022/12/06 13:12:41;;;;;;;;;;;22.50;42.00;;;;;;5062123;27;19916;-55
2022/12/06 13:15:11;;;;;;;;;;;22.60;42.10;;;;;;5039929;28;20402;-55
2022/12/06 13:17:36;;;;;;;;;;;22.60;42.10;;;;;;5034385;28;20015;-55
2022/12/06 13:20:02;;;;;;;;;;;22.50;41.90;;;;;;5051416;27;20016;-56
2022/12/06 13:22:29;;;;;;;;;;;22.60;42.10;;;;;;5068840;27;19916;-55
2022/12/06 13:24:59;;;;;;;;;;;22.60;42.10;;;;;;5085045;27;19932;-55
2022/12/06 13:27:24;;;;;;;;;;;22.60;42.10;;;;;;5037868;28;19917;-55
2022/12/06 13:29:54;;;;;;;;;;;22.60;42.20;;;;;;5040913;27;21838;-54
2022/12/06 13:32:25;;;;;;;;;;;22.60;42.20;;;;;;5050206;27;19913;-55
2022/12/06 13:34:52;;;;;;;;;;;22.60;42.30;;;;;;5039454;27;19955;-55
2022/12/06 13:37:42;;;;;;;;;;;22.60;42.30;;;;;;5038999;28;19945;-54
2022/12/06 13:40:26;;;;;;;;;;;22.60;42.30;;;;;;5045387;27;19916;-55
2022/12/06 13:42:51;;;;;;;;;;;22.60;42.30;;;;;;5055011;27;19932;-56
2022/12/06 13:45:37;;;;;;;;;;;22.60;42.30;;;;;;5067972;27;19916;-55
2022/12/06 13:48:07;;;;;;;;;;;22.60;42.30;;;;;;5056343;27;19973;-55
2022/12/06 13:50:32;;;;;;;;;;;22.60;42.30;;;;;;5063489;27;19917;-57
2022/12/06 13:53:01;;;;;;;;;;;22.60;42.30;;;;;;5058122;27;20469;-55
2022/12/06 13:55:27;;;;;;;;;;;22.60;42.30;;;;;;5054276;28;19920;-54
2022/12/06 13:57:58;;;;;;;;;;;22.60;42.30;;;;;;5071297;27;20695;-55
2022/12/06 14:00:27;;;;;;;;;;;22.70;42.30;;;;;;5055894;27;19977;-55
2022/12/06 14:02:53;;;;;;;;;;;22.60;42.20;;;;;;5071799;27;20472;-55
2022/12/06 14:05:37;;;;;;;;;;;22.60;42.10;;;;;;5047459;27;20388;-55
2022/12/06 14:08:03;;;;;;;;;;;22.60;42.20;;;;;;5059039;28;19953;-55
2022/12/06 14:10:28;;;;;;;;;;;22.60;42.10;;;;;;5056651;27;19952;-53
2022/12/06 14:13:00;;;;;;;;;;;22.60;42.10;;;;;;5051318;28;19916;-54
2022/12/06 14:15:25;;;;;;;;;;;22.60;42.20;;;;;;5055731;27;19951;-55
2022/12/06 14:17:51;;;;;;;;;;;22.60;42.20;;;;;;5069151;27;19942;-55
2022/12/06 14:20:18;;;;;;;;;;;22.60;42.30;;;;;;5068125;27;19966;-55
2022/12/06 14:22:44;;;;;;;;;;;22.70;42.30;;;;;;5047832;27;19920;-55
2022/12/06 14:25:22;;;;;;;;;;;22.70;42.20;;;;;;5053025;27;19948;-55
2022/12/06 14:27:49;;;;;;;;;;;22.70;42.30;;;;;;5060767;27;19916;-56
2022/12/06 14:30:14;;;;;;;;;;;22.70;42.30;;;;;;5065883;27;19936;-56
2022/12/06 14:32:44;;;;;;;;;;;22.70;42.30;;;;;;5078145;27;20411;-56
2022/12/06 14:35:14;;;;;;;;;;;22.70;42.30;;;;;;5052534;28;19919;-54
2022/12/06 14:37:44;;;;;;;;;;;22.70;42.30;;;;;;5070389;27;20429;-54
2022/12/06 14:43:00;;;;;;;;;;;22.70;42.20;;;;;;5054341;27;19913;-54
2022/12/06 14:43:16;;;;;;;;;;;22.70;42.20;;;;;;5054065;27;19916;-54
2022/12/06 14:45:41;;;;;;;;;;;22.70;42.20;;;;;;5052829;28;20333;-56
2022/12/06 14:48:08;;;;;;;;;;;22.80;42.20;;;;;;5041772;27;19968;-54
2022/12/06 14:50:40;;;;;;;;;;;22.70;42.20;;;;;;5051759;27;19923;-54